createdAt,value
2022-10-12T00:01:25.195Z,71.84
2022-10-12T00:03:54.982Z,71.84
2022-10-12T00:06:25.096Z,71.63
2022-10-12T00:08:55.461Z,71.50
2022-10-12T00:11:27.151Z,71.51
2022-10-12T00:13:57.140Z,71.56
2022-10-12T00:16:26.611Z,71.73
2022-10-12T00:18:58.427Z,71.64
2022-10-12T00:21:28.181Z,71.82
2022-10-12T00:23:58.962Z,71.70
2022-10-12T00:26:29.175Z,71.67
2022-10-12T00:29:00.012Z,71.60
2022-10-12T00:31:30.166Z,71.63
2022-10-12T00:34:03.192Z,71.71
2022-10-12T00:36:34.007Z,71.83
2022-10-12T00:39:04.546Z,71.95
2022-10-12T00:41:37.954Z,71.93
2022-10-12T00:44:36.384Z,71.82
2022-10-12T00:47:08.515Z,72.01
2022-10-12T00:49:39.000Z,72.04
2022-10-12T00:52:11.620Z,71.89
2022-10-12T00:54:47.631Z,72.09
2022-10-12T00:57:19.747Z,71.87
2022-10-12T00:59:53.185Z,71.97
2022-10-12T01:02:22.887Z,72.13
2022-10-12T01:04:53.452Z,72.10
2022-10-12T01:07:22.276Z,72.09
2022-10-12T01:09:51.195Z,72.12
2022-10-12T01:12:20.890Z,72.07
2022-10-12T01:14:49.390Z,72.29
2022-10-12T01:17:31.214Z,72.09
2022-10-12T01:20:26.760Z,72.07
2022-10-12T01:23:07.310Z,72.25
2022-10-12T01:25:55.073Z,72.19
2022-10-12T01:28:37.355Z,72.15
2022-10-12T01:31:16.873Z,71.99
2022-10-12T01:33:49.650Z,72.09
2022-10-12T01:36:27.230Z,72.04
2022-10-12T01:39:02.012Z,72.30
2022-10-12T01:41:36.171Z,72.09
2022-10-12T01:44:04.620Z,72.08
2022-10-12T01:46:48.048Z,71.97
2022-10-12T01:49:19.090Z,71.89
2022-10-12T01:52:09.670Z,72.02
2022-10-12T01:54:51.258Z,71.94
2022-10-12T01:57:29.838Z,72.16
2022-10-12T02:00:05.217Z,72.33
2022-10-12T02:02:45.977Z,72.01
2022-10-12T02:05:19.943Z,72.23
2022-10-12T02:07:53.439Z,72.33
2022-10-12T02:10:30.177Z,72.12
2022-10-12T02:13:02.880Z,72.25
2022-10-12T02:15:33.240Z,72.23
2022-10-12T02:18:05.566Z,72.12
2022-10-12T02:20:38.008Z,72.33
2022-10-12T02:23:06.584Z,72.44
2022-10-12T02:25:36.252Z,72.30
2022-10-12T02:28:09.687Z,72.37
2022-10-12T02:30:46.283Z,72.24
2022-10-12T02:33:24.771Z,72.23
2022-10-12T02:35:59.976Z,72.23
2022-10-12T02:38:34.020Z,72.23
2022-10-12T02:41:05.825Z,72.49
2022-10-12T02:43:40.416Z,72.40
2022-10-12T02:46:11.562Z,72.18
2022-10-12T02:48:42.983Z,72.18
2022-10-12T02:51:12.438Z,72.17
2022-10-12T02:53:41.951Z,72.51
2022-10-12T02:56:14.205Z,72.61
2022-10-12T02:58:44.798Z,72.65
2022-10-12T03:01:15.021Z,72.74
2022-10-12T03:03:45.424Z,72.32
2022-10-12T03:06:14.703Z,72.59
2022-10-12T03:08:43.060Z,72.78
2022-10-12T03:11:14.743Z,72.61
2022-10-12T03:13:43.313Z,72.69
2022-10-12T03:16:13.434Z,72.65
2022-10-12T03:18:42.302Z,72.78
2022-10-12T03:21:12.711Z,72.96
2022-10-12T03:23:41.059Z,72.92
2022-10-12T03:26:10.146Z,72.99
2022-10-12T03:28:38.824Z,73.13
2022-10-12T03:31:07.313Z,73.00
2022-10-12T03:33:35.646Z,73.28
2022-10-12T03:36:05.154Z,73.19
2022-10-12T03:38:34.892Z,73.07
2022-10-12T03:41:06.705Z,73.47
2022-10-12T03:43:35.954Z,73.34
2022-10-12T03:46:04.331Z,73.45
2022-10-12T03:48:32.920Z,73.23
2022-10-12T03:51:01.318Z,73.30
2022-10-12T03:53:29.672Z,73.24
2022-10-12T03:55:59.471Z,73.61
2022-10-12T03:58:28.286Z,73.42
2022-10-12T04:00:57.032Z,73.48
2022-10-12T04:03:25.865Z,73.43
2022-10-12T04:05:55.621Z,73.35
2022-10-12T04:08:26.770Z,73.41
2022-10-12T04:10:56.115Z,73.59
2022-10-12T04:13:25.977Z,73.45
2022-10-12T04:15:54.348Z,73.32
2022-10-12T04:18:23.115Z,73.45
2022-10-12T04:20:51.696Z,73.79
2022-10-12T04:23:20.445Z,73.74
2022-10-12T04:25:48.834Z,73.64
2022-10-12T04:28:17.869Z,73.73
2022-10-12T04:30:48.259Z,74.03
2022-10-12T04:33:16.700Z,74.02
2022-10-12T04:35:45.237Z,74.18
2022-10-12T04:38:14.030Z,74.07
2022-10-12T04:40:43.067Z,73.88
2022-10-12T04:43:11.427Z,73.96
2022-10-12T04:45:40.498Z,74.11
2022-10-12T04:48:10.449Z,74.15
2022-10-12T04:50:39.507Z,74.13
2022-10-12T04:53:07.874Z,73.86
2022-10-12T04:55:39.239Z,74.01
2022-10-12T04:58:07.707Z,73.79
2022-10-12T05:00:36.370Z,73.93
2022-10-12T05:03:06.315Z,74.01
2022-10-12T05:05:36.573Z,73.95
2022-10-12T05:08:05.754Z,73.78
2022-10-12T05:10:34.595Z,73.87
2022-10-12T05:13:03.319Z,73.96
2022-10-12T05:15:31.784Z,73.81
2022-10-12T05:18:00.976Z,73.96
2022-10-12T05:20:29.631Z,73.75
2022-10-12T05:23:00.026Z,73.92
2022-10-12T05:25:29.457Z,73.91
2022-10-12T05:27:58.854Z,73.87
2022-10-12T05:30:27.618Z,74.07
2022-10-12T05:32:56.190Z,73.83
2022-10-12T05:35:25.217Z,73.94
2022-10-12T05:37:53.748Z,73.88
2022-10-12T05:40:23.933Z,73.83
2022-10-12T05:42:52.416Z,73.67
2022-10-12T05:45:20.927Z,73.85
2022-10-12T05:47:49.356Z,75.39
2022-10-12T05:50:18.419Z,74.55
2022-10-12T05:52:47.431Z,74.07
2022-10-12T05:55:16.632Z,74.01
2022-10-12T05:57:51.612Z,73.98
2022-10-12T06:00:21.650Z,73.92
2022-10-12T06:02:50.198Z,74.08
2022-10-12T06:05:18.867Z,74.08
2022-10-12T06:07:47.236Z,73.81
2022-10-12T06:10:16.399Z,73.86
2022-10-12T06:12:46.084Z,73.94
2022-10-12T06:15:15.463Z,73.67
2022-10-12T06:17:43.864Z,73.59
2022-10-12T06:20:13.258Z,73.68
2022-10-12T06:22:41.770Z,73.66
2022-10-12T06:25:10.965Z,73.70
2022-10-12T06:27:39.371Z,73.49
2022-10-12T06:30:10.621Z,73.60
2022-10-12T06:32:40.086Z,73.50
2022-10-12T06:35:09.900Z,73.38
2022-10-12T06:37:49.529Z,73.51
2022-10-12T06:40:19.933Z,73.72
2022-10-12T06:42:53.739Z,73.42
2022-10-12T06:45:25.927Z,73.73
2022-10-12T06:47:54.616Z,73.56
2022-10-12T06:50:22.985Z,73.54
2022-10-12T06:52:51.447Z,73.61
2022-10-12T06:55:20.684Z,73.61
2022-10-12T06:57:49.117Z,73.49
2022-10-12T07:00:18.671Z,73.39
2022-10-12T07:02:50.279Z,73.20
2022-10-12T07:05:19.092Z,73.29
2022-10-12T07:07:47.866Z,73.13
2022-10-12T07:10:16.656Z,72.93
2022-10-12T07:12:45.058Z,72.91
2022-10-12T07:15:13.539Z,72.75
2022-10-12T07:17:42.360Z,72.75
2022-10-12T07:20:12.618Z,72.66
2022-10-12T07:22:41.853Z,72.64
2022-10-12T07:25:10.838Z,72.69
2022-10-12T07:27:39.662Z,72.50
2022-10-12T07:30:10.522Z,72.41
2022-10-12T07:32:38.901Z,72.40
2022-10-12T07:35:08.364Z,72.41
2022-10-12T07:37:38.558Z,72.35
2022-10-12T07:40:09.629Z,72.32
2022-10-12T07:42:53.719Z,71.94
2022-10-12T07:45:28.630Z,72.17
2022-10-12T07:47:57.243Z,72.01
2022-10-12T07:50:26.601Z,71.79
2022-10-12T07:52:56.316Z,71.52
2022-10-12T07:55:25.390Z,71.75
2022-10-12T07:57:54.165Z,71.59
2022-10-12T08:00:22.816Z,71.23
2022-10-12T08:02:51.165Z,70.92
2022-10-12T08:05:21.250Z,70.82
2022-10-12T08:07:49.728Z,70.69
2022-10-12T08:10:20.476Z,70.75
2022-10-12T08:12:52.083Z,70.58
2022-10-12T08:15:20.742Z,70.58
2022-10-12T08:17:50.016Z,70.63
2022-10-12T08:20:19.114Z,70.16
2022-10-12T08:22:48.177Z,70.12
2022-10-12T08:25:16.775Z,70.13
2022-10-12T08:27:47.077Z,69.73
2022-10-12T08:30:15.932Z,69.61
2022-10-12T08:32:44.317Z,69.59
2022-10-12T08:35:12.788Z,69.66
2022-10-12T08:37:42.293Z,69.52
2022-10-12T08:40:15.697Z,69.71
2022-10-12T08:42:57.079Z,69.65
2022-10-12T08:45:48.679Z,69.37
2022-10-12T08:48:20.194Z,69.18
2022-10-12T08:50:54.770Z,69.13
2022-10-12T08:53:27.032Z,68.82
2022-10-12T08:55:56.815Z,68.98
2022-10-12T08:58:32.253Z,68.60
2022-10-12T09:01:16.548Z,68.64
2022-10-12T09:03:56.640Z,68.45
2022-10-12T09:06:30.262Z,68.42
2022-10-12T09:09:10.910Z,68.01
2022-10-12T09:11:51.802Z,68.07
2022-10-12T09:14:26.120Z,68.18
2022-10-12T09:16:57.454Z,68.12
2022-10-12T09:19:30.803Z,68.05
2022-10-12T09:21:59.384Z,67.80
2022-10-12T09:24:32.664Z,67.69
2022-10-12T09:27:05.490Z,67.45
2022-10-12T09:29:35.560Z,67.65
2022-10-12T09:32:21.295Z,67.50
2022-10-12T09:34:50.478Z,67.58
2022-10-12T09:37:23.084Z,67.85
2022-10-12T09:39:52.305Z,67.81
2022-10-12T09:42:21.559Z,67.56
2022-10-12T09:44:56.698Z,67.51
2022-10-12T09:47:28.847Z,67.58
2022-10-12T09:50:01.093Z,67.19
2022-10-12T09:52:33.097Z,67.32
2022-10-12T09:55:05.525Z,67.02
2022-10-12T09:57:37.309Z,67.20
2022-10-12T10:00:24.358Z,67.19
2022-10-12T10:02:54.511Z,66.84
2022-10-12T10:05:28.613Z,66.92
2022-10-12T10:08:18.610Z,66.72
2022-10-12T10:10:51.938Z,66.39
2022-10-12T10:13:21.963Z,66.29
2022-10-12T10:16:02.649Z,66.06
2022-10-12T10:18:35.800Z,65.91
2022-10-12T10:21:07.535Z,66.03
2022-10-12T10:23:40.648Z,66.07
2022-10-12T10:26:12.275Z,65.74
2022-10-12T10:28:42.183Z,65.67
2022-10-12T10:31:23.608Z,65.54
2022-10-12T10:34:12.650Z,65.40
2022-10-12T10:36:46.401Z,65.46
2022-10-12T10:39:21.808Z,65.71
2022-10-12T10:41:51.740Z,65.39
2022-10-12T10:44:26.205Z,65.31
2022-10-12T10:46:58.191Z,65.03
2022-10-12T10:49:35.020Z,65.19
2022-10-12T10:52:05.082Z,64.59
2022-10-12T10:54:36.484Z,64.53
2022-10-12T10:57:11.144Z,64.30
2022-10-12T10:59:46.547Z,63.45
2022-10-12T11:02:28.109Z,63.13
2022-10-12T11:05:04.474Z,63.17
2022-10-12T11:07:38.611Z,62.90
2022-10-12T11:10:21.632Z,62.94
2022-10-12T11:12:55.927Z,62.70
2022-10-12T11:15:28.282Z,62.18
2022-10-12T11:18:08.822Z,62.12
2022-10-12T11:20:51.399Z,62.15
2022-10-12T11:23:28.462Z,62.25
2022-10-12T11:26:05.204Z,62.50
2022-10-12T11:28:34.730Z,62.19
2022-10-12T11:31:03.643Z,62.22
2022-10-12T11:33:39.464Z,62.68
2022-10-12T11:36:11.278Z,62.71
2022-10-12T11:38:44.099Z,62.65
2022-10-12T11:41:35.074Z,62.82
2022-10-12T11:44:11.898Z,62.88
2022-10-12T11:46:48.421Z,62.97
2022-10-12T11:49:27.777Z,62.92
2022-10-12T11:51:59.188Z,63.16
2022-10-12T11:54:34.025Z,63.14
2022-10-12T11:57:08.791Z,62.86
2022-10-12T11:59:42.619Z,62.93
2022-10-12T12:02:18.815Z,62.52
2022-10-12T12:04:50.422Z,62.42
2022-10-12T12:07:48.318Z,62.37
2022-10-12T12:10:59.782Z,62.51
2022-10-12T12:13:28.547Z,62.75
2022-10-12T12:16:34.990Z,62.47
2022-10-12T12:19:18.747Z,62.28
2022-10-12T12:22:29.027Z,62.31
2022-10-12T12:25:15.114Z,62.46
2022-10-12T12:27:46.613Z,62.29
2022-10-12T12:30:37.340Z,61.95
2022-10-12T12:33:25.776Z,61.54
2022-10-12T12:35:58.014Z,61.52
2022-10-12T12:38:34.192Z,61.59
2022-10-12T12:41:10.390Z,61.65
2022-10-12T12:44:04.098Z,61.30
2022-10-12T12:50:01.583Z,61.08
2022-10-12T12:52:34.024Z,61.14
2022-10-12T12:55:41.636Z,61.63
2022-10-12T12:58:37.544Z,61.13
2022-10-12T13:01:25.986Z,61.83
2022-10-12T13:04:19.023Z,61.51
2022-10-12T13:07:30.655Z,61.57
2022-10-12T13:10:11.362Z,61.19
2022-10-12T13:13:09.743Z,61.30
2022-10-12T13:15:48.328Z,60.77
2022-10-12T13:18:47.554Z,60.33
2022-10-12T13:21:20.715Z,59.63
2022-10-12T13:23:51.233Z,59.14
2022-10-12T13:26:24.937Z,58.54
2022-10-12T13:28:56.246Z,57.65
2022-10-12T13:31:29.132Z,57.15
2022-10-12T13:34:10.633Z,57.00
2022-10-12T13:36:50.284Z,56.17
2022-10-12T13:39:21.510Z,55.56
2022-10-12T13:41:53.369Z,55.19
2022-10-12T13:44:27.610Z,55.24
2022-10-12T13:46:59.274Z,54.66
2022-10-12T13:49:29.805Z,54.95
2022-10-12T13:52:00.600Z,54.52
2022-10-12T13:54:38.190Z,53.45
2022-10-12T13:57:19.160Z,53.38
2022-10-12T13:59:53.617Z,53.14
2022-10-12T14:02:24.922Z,52.81
2022-10-12T14:04:56.107Z,52.37
2022-10-12T14:07:27.442Z,52.25
2022-10-12T14:10:07.031Z,52.11
2022-10-12T14:12:37.432Z,51.54
2022-10-12T14:15:09.165Z,51.81
2022-10-12T14:17:44.542Z,52.11
2022-10-12T14:20:18.672Z,52.34
2022-10-12T14:22:50.197Z,52.08
2022-10-12T14:25:21.395Z,52.68
2022-10-12T14:27:56.241Z,52.68
2022-10-12T14:30:29.941Z,53.17
2022-10-12T14:33:11.866Z,53.59
2022-10-12T14:35:42.156Z,53.31
2022-10-12T14:38:38.173Z,52.75
2022-10-12T14:41:35.840Z,53.11
2022-10-12T14:44:10.626Z,52.91
2022-10-12T14:46:43.713Z,52.83
2022-10-12T14:49:18.449Z,52.34
2022-10-12T14:51:47.774Z,52.27
2022-10-12T14:54:16.497Z,52.77
2022-10-12T14:56:47.499Z,52.66
2022-10-12T14:59:15.976Z,52.27
2022-10-12T15:01:47.771Z,52.38
2022-10-12T15:04:20.090Z,52.05
2022-10-12T15:06:51.100Z,52.14
2022-10-12T15:09:20.282Z,52.20
2022-10-12T15:11:48.648Z,51.67
2022-10-12T15:14:17.507Z,51.90
2022-10-12T15:16:48.307Z,51.71
2022-10-12T15:19:16.710Z,52.03
2022-10-12T15:21:45.165Z,52.37
2022-10-12T15:24:16.301Z,52.83
2022-10-12T15:26:44.695Z,52.57
2022-10-12T15:29:13.416Z,52.81
2022-10-12T15:31:41.782Z,53.23
2022-10-12T15:34:14.696Z,53.51
2022-10-12T15:36:43.397Z,53.50
2022-10-12T15:39:12.042Z,53.80
2022-10-12T15:41:40.850Z,54.24
2022-10-12T15:44:12.480Z,54.55
2022-10-12T15:46:42.010Z,54.91
2022-10-12T15:49:13.379Z,55.53
2022-10-12T15:51:48.292Z,55.46
2022-10-12T15:54:17.452Z,55.80
2022-10-12T15:56:46.921Z,56.26
2022-10-12T15:59:15.847Z,56.71
2022-10-12T16:01:44.841Z,56.75
2022-10-12T16:04:16.874Z,57.22
2022-10-12T16:06:46.970Z,57.21
2022-10-12T16:09:15.313Z,57.34
2022-10-12T16:11:43.775Z,57.83
2022-10-12T16:14:15.180Z,58.00
2022-10-12T16:16:43.629Z,58.20
2022-10-12T16:19:11.995Z,58.43
2022-10-12T16:21:42.053Z,58.60
2022-10-12T16:24:12.995Z,58.96
2022-10-12T16:26:44.865Z,58.98
2022-10-12T16:29:14.577Z,59.46
2022-10-12T16:34:16.755Z,59.96
2022-10-12T16:36:46.884Z,60.18
2022-10-12T16:39:15.250Z,60.23
2022-10-12T16:41:44.171Z,60.23
2022-10-12T16:44:12.901Z,60.40
2022-10-12T16:46:41.745Z,60.63
2022-10-12T16:49:10.181Z,60.73
2022-10-12T16:51:41.589Z,61.08
2022-10-12T16:54:11.686Z,61.25
2022-10-12T16:56:40.058Z,61.48
2022-10-12T16:59:08.944Z,61.60
2022-10-12T17:01:37.344Z,61.65
2022-10-12T17:04:06.681Z,61.90
2022-10-12T17:06:35.082Z,61.93
2022-10-12T17:09:04.564Z,62.17
2022-10-12T17:11:38.831Z,62.38
2022-10-12T17:14:08.661Z,62.73
2022-10-12T17:16:52.683Z,62.81
2022-10-12T17:19:22.737Z,62.94
2022-10-12T17:21:52.566Z,62.84
2022-10-12T17:24:24.676Z,63.08
2022-10-12T17:26:55.144Z,63.01
2022-10-12T17:29:25.539Z,63.21
2022-10-12T17:32:00.487Z,63.42
2022-10-12T17:34:41.226Z,63.79
2022-10-12T17:37:12.625Z,63.58
2022-10-12T17:39:43.651Z,63.88
2022-10-12T17:42:14.033Z,64.13
2022-10-12T17:44:42.623Z,64.22
2022-10-12T17:47:11.414Z,64.38
2022-10-12T17:49:42.887Z,64.49
2022-10-12T17:52:14.337Z,64.62
2022-10-12T17:54:43.203Z,64.78
2022-10-12T17:57:12.891Z,64.84
2022-10-12T17:59:41.272Z,64.84
2022-10-12T18:02:11.399Z,65.00
2022-10-12T18:04:39.748Z,65.06
2022-10-12T18:07:08.585Z,65.08
2022-10-12T18:09:38.055Z,64.97
2022-10-12T18:12:06.801Z,64.94
2022-10-12T18:14:36.565Z,65.06
2022-10-12T18:17:05.352Z,65.03
2022-10-12T18:19:33.965Z,65.14
2022-10-12T18:22:02.427Z,65.48
2022-10-12T18:24:31.489Z,65.33
2022-10-12T18:27:00.238Z,65.51
2022-10-12T18:29:28.672Z,65.59
2022-10-12T18:32:02.168Z,65.79
2022-10-12T18:34:35.670Z,65.69
2022-10-12T18:37:05.157Z,65.93
2022-10-12T18:39:33.667Z,66.13
2022-10-12T18:42:02.533Z,66.05
2022-10-12T18:44:37.502Z,65.89
2022-10-12T18:47:07.396Z,65.88
2022-10-12T18:49:38.042Z,65.86
2022-10-12T18:52:06.576Z,65.99
2022-10-12T18:54:36.027Z,65.96
2022-10-12T18:57:04.610Z,65.90
2022-10-12T18:59:33.507Z,66.14
2022-10-12T19:02:02.506Z,66.23
2022-10-12T19:04:32.282Z,66.22
2022-10-12T19:07:00.970Z,66.40
2022-10-12T19:09:30.065Z,66.49
2022-10-12T19:11:58.890Z,66.41
2022-10-12T19:14:27.400Z,66.35
2022-10-12T19:16:55.875Z,66.65
2022-10-12T19:19:25.024Z,66.71
2022-10-12T19:21:54.958Z,66.62
2022-10-12T19:24:23.599Z,66.53
2022-10-12T19:26:52.671Z,66.59
2022-10-12T19:29:23.531Z,66.69
2022-10-12T19:31:53.827Z,66.68
2022-10-12T19:34:23.620Z,66.74
2022-10-12T19:36:54.331Z,66.84
2022-10-12T19:39:24.345Z,66.91
2022-10-12T19:41:54.223Z,66.99
2022-10-12T19:44:26.046Z,67.25
2022-10-12T19:46:54.419Z,67.16
2022-10-12T19:49:23.453Z,67.07
2022-10-12T19:51:56.004Z,67.15
2022-10-12T19:54:24.530Z,67.14
2022-10-12T19:56:56.712Z,67.08
2022-10-12T19:59:27.779Z,67.05
2022-10-12T20:01:56.979Z,67.19
2022-10-12T20:04:25.760Z,67.29
2022-10-12T20:06:55.559Z,67.26
2022-10-12T20:09:23.992Z,67.16
2022-10-12T20:11:52.735Z,67.37
2022-10-12T20:14:21.634Z,67.72
2022-10-12T20:16:50.414Z,67.80
2022-10-12T20:19:19.245Z,67.83
2022-10-12T20:21:47.632Z,67.86
2022-10-12T20:24:17.998Z,68.08
2022-10-12T20:26:46.577Z,68.15
2022-10-12T20:29:14.956Z,68.16
2022-10-12T20:31:44.470Z,68.35
2022-10-12T20:34:12.923Z,68.40
2022-10-12T20:36:42.051Z,68.45
2022-10-12T20:39:10.650Z,68.40
2022-10-12T20:41:40.985Z,68.49
2022-10-12T20:44:11.147Z,68.65
2022-10-12T20:46:39.619Z,68.74
2022-10-12T20:49:08.761Z,68.72
2022-10-12T20:51:39.973Z,68.63
2022-10-12T20:54:09.182Z,68.62
2022-10-12T20:56:44.122Z,68.50
2022-10-12T20:59:12.622Z,68.55
2022-10-12T21:01:42.357Z,68.72
2022-10-12T21:04:11.200Z,68.76
2022-10-12T21:06:41.572Z,69.01
2022-10-12T21:09:14.727Z,69.08
2022-10-12T21:11:44.527Z,68.92
2022-10-12T21:14:13.986Z,68.97
2022-10-12T21:16:42.620Z,68.98
2022-10-12T21:19:15.459Z,69.15
2022-10-12T21:21:43.967Z,69.13
2022-10-12T21:24:13.588Z,68.89
2022-10-12T21:26:42.440Z,69.12
2022-10-12T21:29:12.351Z,69.26
2022-10-12T21:31:40.932Z,69.17
2022-10-12T21:34:11.385Z,69.50
2022-10-12T21:36:40.750Z,69.48
2022-10-12T21:39:11.882Z,69.57
2022-10-12T21:41:40.943Z,69.52
2022-10-12T21:44:09.432Z,69.67
2022-10-12T21:46:39.713Z,70.00
2022-10-12T21:49:09.355Z,69.74
2022-10-12T21:51:38.652Z,70.09
2022-10-12T21:54:07.794Z,69.96
2022-10-12T21:56:38.930Z,69.92
2022-10-12T21:59:07.989Z,70.09
2022-10-12T22:01:41.967Z,70.28
2022-10-12T22:04:13.702Z,70.18
2022-10-12T22:06:43.401Z,70.44
2022-10-12T22:09:17.047Z,70.43
2022-10-12T22:11:46.955Z,70.51
2022-10-12T22:14:18.193Z,70.53
2022-10-12T22:16:48.679Z,70.22
2022-10-12T22:19:19.479Z,70.57
2022-10-12T22:21:51.035Z,70.65
2022-10-12T22:24:22.293Z,70.59
2022-10-12T22:26:50.901Z,70.72
2022-10-12T22:29:19.325Z,71.08
2022-10-12T22:31:49.136Z,71.02
2022-10-12T22:34:17.554Z,70.97
2022-10-12T22:36:46.657Z,71.02
2022-10-12T22:39:15.996Z,71.05
2022-10-12T22:41:45.987Z,71.18
2022-10-12T22:44:14.409Z,70.98
2022-10-12T22:46:42.831Z,71.02
2022-10-12T22:49:12.878Z,71.05
2022-10-12T22:51:41.766Z,71.19
2022-10-12T22:54:11.055Z,70.97
2022-10-12T22:56:42.989Z,71.16
2022-10-12T22:59:14.156Z,71.12
2022-10-12T23:01:42.688Z,71.05
2022-10-12T23:04:12.595Z,71.10
2022-10-12T23:06:41.115Z,71.05
2022-10-12T23:09:09.842Z,71.39
2022-10-12T23:11:38.584Z,71.27
2022-10-12T23:14:06.986Z,71.46
2022-10-12T23:16:35.422Z,71.42
2022-10-12T23:19:06.824Z,71.46
2022-10-12T23:21:37.151Z,71.38
2022-10-12T23:24:06.408Z,71.63
2022-10-12T23:26:35.968Z,71.66
2022-10-12T23:29:04.951Z,71.57
2022-10-12T23:31:35.929Z,71.40
2022-10-12T23:34:06.567Z,71.22
2022-10-12T23:36:37.135Z,71.32
2022-10-12T23:39:06.493Z,71.36
2022-10-12T23:41:35.640Z,71.42
2022-10-12T23:44:04.214Z,71.39
2022-10-12T23:46:33.743Z,71.32
2022-10-12T23:49:02.205Z,71.32
2022-10-12T23:51:31.299Z,71.44
2022-10-12T23:54:01.664Z,71.33
2022-10-12T23:56:30.171Z,71.67
2022-10-12T23:59:02.864Z,71.47
